sensor_id;sensor_type;location;lat;lon;timestamp;temperature;humidity
22633;DHT22;11483;55.828;37.488;2022-08-05T00:00:59;22.90;99.90
22633;DHT22;11483;55.828;37.488;2022-08-05T00:03:25;22.90;99.90
22633;DHT22;11483;55.828;37.488;2022-08-05T00:05:51;22.90;99.90
22633;DHT22;11483;55.828;37.488;2022-08-05T00:08:16;22.80;99.90
22633;DHT22;11483;55.828;37.488;2022-08-05T00:10:43;22.80;99.90
22633;DHT22;11483;55.828;37.488;2022-08-05T00:13:10;22.80;99.90
22633;DHT22;11483;55.828;37.488;2022-08-05T00:15:36;22.80;99.90
22633;DHT22;11483;55.828;37.488;2022-08-05T00:18:02;22.80;99.90
22633;DHT22;11483;55.828;37.488;2022-08-05T00:20:28;22.80;99.90
22633;DHT22;11483;55.828;37.488;2022-08-05T00:22:53;22.80;99.90
22633;DHT22;11483;55.828;37.488;2022-08-05T00:25:19;22.70;99.90
22633;DHT22;11483;55.828;37.488;2022-08-05T00:27:45;22.70;99.90
22633;DHT22;11483;55.828;37.488;2022-08-05T00:30:11;22.70;99.90
22633;DHT22;11483;55.828;37.488;2022-08-05T00:32:37;22.70;99.90
22633;DHT22;11483;55.828;37.488;2022-08-05T00:35:03;22.70;99.90
22633;DHT22;11483;55.828;37.488;2022-08-05T00:37:29;22.60;99.90
22633;DHT22;11483;55.828;37.488;2022-08-05T00:39:55;22.60;99.90
22633;DHT22;11483;55.828;37.488;2022-08-05T00:42:50;22.50;99.90
22633;DHT22;11483;55.828;37.488;2022-08-05T00:45:16;22.50;99.90
22633;DHT22;11483;55.828;37.488;2022-08-05T00:47:42;22.50;99.90
22633;DHT22;11483;55.828;37.488;2022-08-05T00:50:09;22.50;99.90
22633;DHT22;11483;55.828;37.488;2022-08-05T00:52:35;22.50;99.90
22633;DHT22;11483;55.828;37.488;2022-08-05T00:55:01;22.40;99.90
22633;DHT22;11483;55.828;37.488;2022-08-05T00:57:27;22.30;99.90
22633;DHT22;11483;55.828;37.488;2022-08-05T00:59:53;22.30;99.90
22633;DHT22;11483;55.828;37.488;2022-08-05T01:02:19;22.30;99.90
22633;DHT22;11483;55.828;37.488;2022-08-05T01:04:45;22.30;99.90
22633;DHT22;11483;55.828;37.488;2022-08-05T01:07:11;22.30;99.90
22633;DHT22;11483;55.828;37.488;2022-08-05T01:09:37;22.30;99.90
22633;DHT22;11483;55.828;37.488;2022-08-05T01:12:07;22.30;99.90
22633;DHT22;11483;55.828;37.488;2022-08-05T01:14:57;22.30;99.90
22633;DHT22;11483;55.828;37.488;2022-08-05T01:17:37;22.30;99.90
22633;DHT22;11483;55.828;37.488;2022-08-05T01:28:12;22.30;99.90
22633;DHT22;11483;55.828;37.488;2022-08-05T01:30:50;22.30;99.90
22633;DHT22;11483;55.828;37.488;2022-08-05T01:33:18;22.40;99.90
22633;DHT22;11483;55.828;37.488;2022-08-05T01:35:47;22.30;99.90
22633;DHT22;11483;55.828;37.488;2022-08-05T01:38:14;22.30;99.90
22633;DHT22;11483;55.828;37.488;2022-08-05T01:40:42;22.20;99.90
22633;DHT22;11483;55.828;37.488;2022-08-05T01:43:09;22.10;99.90
22633;DHT22;11483;55.828;37.488;2022-08-05T01:45:36;22.10;99.90
22633;DHT22;11483;55.828;37.488;2022-08-05T01:48:05;22.10;99.90
22633;DHT22;11483;55.828;37.488;2022-08-05T01:50:36;22.10;99.90
22633;DHT22;11483;55.828;37.488;2022-08-05T01:53:06;22.10;99.90
22633;DHT22;11483;55.828;37.488;2022-08-05T01:55:33;22.10;99.90
22633;DHT22;11483;55.828;37.488;2022-08-05T01:58:01;22.00;99.90
22633;DHT22;11483;55.828;37.488;2022-08-05T02:00:30;22.00;99.90
22633;DHT22;11483;55.828;37.488;2022-08-05T02:05:43;22.10;99.90
22633;DHT22;11483;55.828;37.488;2022-08-05T02:08:10;22.10;99.90
22633;DHT22;11483;55.828;37.488;2022-08-05T02:10:43;22.00;99.90
22633;DHT22;11483;55.828;37.488;2022-08-05T02:13:12;22.00;99.90
22633;DHT22;11483;55.828;37.488;2022-08-05T02:16:43;22.10;99.90
22633;DHT22;11483;55.828;37.488;2022-08-05T02:19:26;22.10;99.90
22633;DHT22;11483;55.828;37.488;2022-08-05T02:24:29;22.10;99.90
22633;DHT22;11483;55.828;37.488;2022-08-05T02:26:59;22.10;99.90
22633;DHT22;11483;55.828;37.488;2022-08-05T02:29:27;22.00;99.90
22633;DHT22;11483;55.828;37.488;2022-08-05T02:31:56;22.10;99.90
22633;DHT22;11483;55.828;37.488;2022-08-05T02:34:23;22.20;99.90
22633;DHT22;11483;55.828;37.488;2022-08-05T02:36:55;22.30;99.90
22633;DHT22;11483;55.828;37.488;2022-08-05T02:39:22;22.30;99.90
22633;DHT22;11483;55.828;37.488;2022-08-05T02:41:50;22.30;99.90
22633;DHT22;11483;55.828;37.488;2022-08-05T02:44:17;22.40;99.90
22633;DHT22;11483;55.828;37.488;2022-08-05T02:46:45;22.50;99.90
22633;DHT22;11483;55.828;37.488;2022-08-05T02:49:14;22.50;99.90
22633;DHT22;11483;55.828;37.488;2022-08-05T02:51:41;22.50;99.90
22633;DHT22;11483;55.828;37.488;2022-08-05T02:54:09;22.60;99.90
22633;DHT22;11483;55.828;37.488;2022-08-05T02:56:36;22.60;99.90
22633;DHT22;11483;55.828;37.488;2022-08-05T02:59:03;22.70;99.90
22633;DHT22;11483;55.828;37.488;2022-08-05T03:01:30;22.60;99.90
22633;DHT22;11483;55.828;37.488;2022-08-05T03:04:00;22.50;99.90
22633;DHT22;11483;55.828;37.488;2022-08-05T03:06:27;22.40;99.90
22633;DHT22;11483;55.828;37.488;2022-08-05T03:08:53;22.40;99.90
22633;DHT22;11483;55.828;37.488;2022-08-05T03:11:24;22.60;99.90
22633;DHT22;11483;55.828;37.488;2022-08-05T03:13:51;22.70;99.90
22633;DHT22;11483;55.828;37.488;2022-08-05T03:16:18;22.80;99.90
22633;DHT22;11483;55.828;37.488;2022-08-05T03:18:45;22.90;99.90
22633;DHT22;11483;55.828;37.488;2022-08-05T03:21:11;22.80;99.90
22633;DHT22;11483;55.828;37.488;2022-08-05T03:23:42;23.00;99.90
22633;DHT22;11483;55.828;37.488;2022-08-05T03:26:08;23.10;99.90
22633;DHT22;11483;55.828;37.488;2022-08-05T03:28:35;23.20;99.90
22633;DHT22;11483;55.828;37.488;2022-08-05T03:31:02;23.40;99.90
22633;DHT22;11483;55.828;37.488;2022-08-05T03:33:29;23.60;99.90
22633;DHT22;11483;55.828;37.488;2022-08-05T03:35:56;23.70;99.90
22633;DHT22;11483;55.828;37.488;2022-08-05T03:38:23;23.80;99.90
22633;DHT22;11483;55.828;37.488;2022-08-05T03:40:49;23.80;99.90
22633;DHT22;11483;55.828;37.488;2022-08-05T03:43:17;23.80;99.90
22633;DHT22;11483;55.828;37.488;2022-08-05T03:45:43;23.90;99.90
22633;DHT22;11483;55.828;37.488;2022-08-05T03:48:09;23.90;99.90
22633;DHT22;11483;55.828;37.488;2022-08-05T03:53:11;24.10;99.90
22633;DHT22;11483;55.828;37.488;2022-08-05T03:55:46;24.10;99.90
22633;DHT22;11483;55.828;37.488;2022-08-05T03:58:17;24.20;99.90
22633;DHT22;11483;55.828;37.488;2022-08-05T04:00:44;24.30;99.90
22633;DHT22;11483;55.828;37.488;2022-08-05T04:03:12;24.30;99.90
22633;DHT22;11483;55.828;37.488;2022-08-05T04:05:38;24.20;99.90
22633;DHT22;11483;55.828;37.488;2022-08-05T04:08:09;24.30;99.90
22633;DHT22;11483;55.828;37.488;2022-08-05T04:10:36;24.30;99.90
22633;DHT22;11483;55.828;37.488;2022-08-05T04:13:02;24.40;99.90
22633;DHT22;11483;55.828;37.488;2022-08-05T04:15:29;24.50;99.90
22633;DHT22;11483;55.828;37.488;2022-08-05T04:17:55;24.50;99.90
22633;DHT22;11483;55.828;37.488;2022-08-05T04:20:22;24.60;99.90
22633;DHT22;11483;55.828;37.488;2022-08-05T04:22:48;24.60;99.90
22633;DHT22;11483;55.828;37.488;2022-08-05T04:25:15;24.60;99.90
22633;DHT22;11483;55.828;37.488;2022-08-05T04:27:41;24.70;99.90
22633;DHT22;11483;55.828;37.488;2022-08-05T04:30:08;24.70;99.90
22633;DHT22;11483;55.828;37.488;2022-08-05T04:32:34;24.80;99.90
22633;DHT22;11483;55.828;37.488;2022-08-05T04:35:00;24.70;99.90
22633;DHT22;11483;55.828;37.488;2022-08-05T04:37:26;24.70;99.90
22633;DHT22;11483;55.828;37.488;2022-08-05T04:39:52;24.90;99.90
22633;DHT22;11483;55.828;37.488;2022-08-05T04:42:18;25.00;99.90
22633;DHT22;11483;55.828;37.488;2022-08-05T04:44:44;25.00;99.90
22633;DHT22;11483;55.828;37.488;2022-08-05T04:47:09;25.00;99.90
22633;DHT22;11483;55.828;37.488;2022-08-05T04:49:36;25.10;99.90
22633;DHT22;11483;55.828;37.488;2022-08-05T04:52:02;25.30;99.90
22633;DHT22;11483;55.828;37.488;2022-08-05T04:54:28;25.30;99.90
22633;DHT22;11483;55.828;37.488;2022-08-05T04:56:54;25.40;99.90
22633;DHT22;11483;55.828;37.488;2022-08-05T04:59:20;25.50;99.90
22633;DHT22;11483;55.828;37.488;2022-08-05T05:01:47;25.70;99.90
22633;DHT22;11483;55.828;37.488;2022-08-05T05:04:14;25.80;99.90
22633;DHT22;11483;55.828;37.488;2022-08-05T05:06:40;25.90;99.90
22633;DHT22;11483;55.828;37.488;2022-08-05T05:09:06;26.10;99.90
22633;DHT22;11483;55.828;37.488;2022-08-05T05:11:31;26.10;99.90
22633;DHT22;11483;55.828;37.488;2022-08-05T05:13:57;26.30;99.90
22633;DHT22;11483;55.828;37.488;2022-08-05T05:16:23;26.30;99.90
22633;DHT22;11483;55.828;37.488;2022-08-05T05:18:49;26.40;99.90
22633;DHT22;11483;55.828;37.488;2022-08-05T05:21:15;26.50;99.90
22633;DHT22;11483;55.828;37.488;2022-08-05T05:23:41;26.50;99.90
22633;DHT22;11483;55.828;37.488;2022-08-05T05:26:06;26.60;99.90
22633;DHT22;11483;55.828;37.488;2022-08-05T05:28:32;26.70;99.90
22633;DHT22;11483;55.828;37.488;2022-08-05T05:30:58;26.70;99.90
22633;DHT22;11483;55.828;37.488;2022-08-05T05:33:24;26.70;99.90
22633;DHT22;11483;55.828;37.488;2022-08-05T05:35:50;26.70;99.90
22633;DHT22;11483;55.828;37.488;2022-08-05T05:38:16;26.70;99.90
22633;DHT22;11483;55.828;37.488;2022-08-05T05:40:42;26.70;99.90
22633;DHT22;11483;55.828;37.488;2022-08-05T05:43:08;26.80;99.90
22633;DHT22;11483;55.828;37.488;2022-08-05T05:45:34;27.00;99.90
22633;DHT22;11483;55.828;37.488;2022-08-05T05:48:00;27.00;99.90
22633;DHT22;11483;55.828;37.488;2022-08-05T05:50:27;26.90;99.90
22633;DHT22;11483;55.828;37.488;2022-08-05T05:52:52;27.00;99.90
22633;DHT22;11483;55.828;37.488;2022-08-05T05:55:18;27.10;99.90
22633;DHT22;11483;55.828;37.488;2022-08-05T05:57:46;27.20;99.90
22633;DHT22;11483;55.828;37.488;2022-08-05T06:00:17;27.40;99.90
22633;DHT22;11483;55.828;37.488;2022-08-05T06:02:44;27.60;99.90
22633;DHT22;11483;55.828;37.488;2022-08-05T06:05:12;27.80;99.90
22633;DHT22;11483;55.828;37.488;2022-08-05T06:07:38;28.10;99.90
22633;DHT22;11483;55.828;37.488;2022-08-05T06:10:05;28.30;99.90
22633;DHT22;11483;55.828;37.488;2022-08-05T06:12:35;28.50;99.90
22633;DHT22;11483;55.828;37.488;2022-08-05T06:15:02;28.70;99.90
22633;DHT22;11483;55.828;37.488;2022-08-05T06:17:28;28.90;99.90
22633;DHT22;11483;55.828;37.488;2022-08-05T06:19:54;29.20;99.90
22633;DHT22;11483;55.828;37.488;2022-08-05T06:22:25;29.30;99.90
22633;DHT22;11483;55.828;37.488;2022-08-05T06:24:52;29.50;99.90
22633;DHT22;11483;55.828;37.488;2022-08-05T06:27:18;29.80;99.90
22633;DHT22;11483;55.828;37.488;2022-08-05T06:29:44;30.10;99.90
22633;DHT22;11483;55.828;37.488;2022-08-05T06:32:10;30.20;99.90
22633;DHT22;11483;55.828;37.488;2022-08-05T06:34:36;30.30;99.90
22633;DHT22;11483;55.828;37.488;2022-08-05T06:37:02;30.50;99.90
22633;DHT22;11483;55.828;37.488;2022-08-05T06:39:28;30.40;99.90
22633;DHT22;11483;55.828;37.488;2022-08-05T06:41:58;30.20;99.90
22633;DHT22;11483;55.828;37.488;2022-08-05T06:44:27;30.10;99.90
22633;DHT22;11483;55.828;37.488;2022-08-05T06:46:54;30.10;99.90
22633;DHT22;11483;55.828;37.488;2022-08-05T06:49:20;30.00;99.90
22633;DHT22;11483;55.828;37.488;2022-08-05T06:51:46;29.90;99.90
22633;DHT22;11483;55.828;37.488;2022-08-05T06:54:12;29.60;99.90
22633;DHT22;11483;55.828;37.488;2022-08-05T06:56:38;29.40;99.90
22633;DHT22;11483;55.828;37.488;2022-08-05T06:59:05;29.20;99.90
22633;DHT22;11483;55.828;37.488;2022-08-05T07:01:31;29.10;99.90
22633;DHT22;11483;55.828;37.488;2022-08-05T07:03:57;29.00;99.90
22633;DHT22;11483;55.828;37.488;2022-08-05T07:06:23;29.00;99.90
22633;DHT22;11483;55.828;37.488;2022-08-05T07:08:49;29.10;99.90
22633;DHT22;11483;55.828;37.488;2022-08-05T07:11:15;29.00;99.90
22633;DHT22;11483;55.828;37.488;2022-08-05T07:13:42;29.00;99.90
22633;DHT22;11483;55.828;37.488;2022-08-05T07:16:27;28.90;99.90
22633;DHT22;11483;55.828;37.488;2022-08-05T07:19:12;29.10;99.90
22633;DHT22;11483;55.828;37.488;2022-08-05T07:21:38;29.00;99.90
22633;DHT22;11483;55.828;37.488;2022-08-05T07:24:04;29.10;99.90
22633;DHT22;11483;55.828;37.488;2022-08-05T07:26:30;29.10;99.90
22633;DHT22;11483;55.828;37.488;2022-08-05T07:28:56;29.10;99.90
22633;DHT22;11483;55.828;37.488;2022-08-05T07:31:22;29.10;99.90
22633;DHT22;11483;55.828;37.488;2022-08-05T07:33:47;29.20;99.90
22633;DHT22;11483;55.828;37.488;2022-08-05T07:36:13;29.10;99.90
22633;DHT22;11483;55.828;37.488;2022-08-05T07:38:39;29.30;99.90
22633;DHT22;11483;55.828;37.488;2022-08-05T07:41:07;29.50;99.90
22633;DHT22;11483;55.828;37.488;2022-08-05T07:43:33;29.40;99.90
22633;DHT22;11483;55.828;37.488;2022-08-05T07:45:59;29.50;99.90
22633;DHT22;11483;55.828;37.488;2022-08-05T07:48:25;29.40;99.90
22633;DHT22;11483;55.828;37.488;2022-08-05T07:50:51;29.30;99.90
22633;DHT22;11483;55.828;37.488;2022-08-05T07:53:17;29.20;99.90
22633;DHT22;11483;55.828;37.488;2022-08-05T07:55:42;29.20;99.90
22633;DHT22;11483;55.828;37.488;2022-08-05T07:58:08;29.30;99.90
22633;DHT22;11483;55.828;37.488;2022-08-05T08:00:34;29.50;99.90
22633;DHT22;11483;55.828;37.488;2022-08-05T08:03:00;29.40;99.90
22633;DHT22;11483;55.828;37.488;2022-08-05T08:05:26;29.50;99.90
22633;DHT22;11483;55.828;37.488;2022-08-05T08:07:53;29.40;99.90
22633;DHT22;11483;55.828;37.488;2022-08-05T08:10:21;29.30;99.90
22633;DHT22;11483;55.828;37.488;2022-08-05T08:12:47;29.40;99.90
22633;DHT22;11483;55.828;37.488;2022-08-05T08:15:13;29.60;99.90
22633;DHT22;11483;55.828;37.488;2022-08-05T08:17:39;29.80;99.90
22633;DHT22;11483;55.828;37.488;2022-08-05T08:20:05;29.90;99.90
22633;DHT22;11483;55.828;37.488;2022-08-05T08:22:32;29.90;99.90
22633;DHT22;11483;55.828;37.488;2022-08-05T08:24:58;29.90;99.90
22633;DHT22;11483;55.828;37.488;2022-08-05T08:27:24;30.10;99.90
22633;DHT22;11483;55.828;37.488;2022-08-05T08:29:50;30.30;99.90
22633;DHT22;11483;55.828;37.488;2022-08-05T08:32:16;30.50;99.70
22633;DHT22;11483;55.828;37.488;2022-08-05T08:34:42;30.70;98.40
22633;DHT22;11483;55.828;37.488;2022-08-05T08:37:07;30.70;98.60
22633;DHT22;11483;55.828;37.488;2022-08-05T08:39:33;31.10;98.80
22633;DHT22;11483;55.828;37.488;2022-08-05T08:42:00;31.50;96.30
22633;DHT22;11483;55.828;37.488;2022-08-05T08:44:30;32.30;95.10
22633;DHT22;11483;55.828;37.488;2022-08-05T08:46:56;33.40;93.00
22633;DHT22;11483;55.828;37.488;2022-08-05T08:49:22;34.50;91.90
22633;DHT22;11483;55.828;37.488;2022-08-05T08:51:48;35.50;88.60
22633;DHT22;11483;55.828;37.488;2022-08-05T08:54:18;36.10;84.40
22633;DHT22;11483;55.828;37.488;2022-08-05T08:56:44;36.30;80.90
22633;DHT22;11483;55.828;37.488;2022-08-05T08:59:10;36.90;79.70
22633;DHT22;11483;55.828;37.488;2022-08-05T09:01:36;37.80;75.30
22633;DHT22;11483;55.828;37.488;2022-08-05T09:04:02;38.00;72.40
22633;DHT22;11483;55.828;37.488;2022-08-05T09:06:29;38.30;71.30
22633;DHT22;11483;55.828;37.488;2022-08-05T09:08:59;38.20;69.50
22633;DHT22;11483;55.828;37.488;2022-08-05T09:11:25;38.40;69.40
22633;DHT22;11483;55.828;37.488;2022-08-05T09:13:51;38.80;69.10
22633;DHT22;11483;55.828;37.488;2022-08-05T09:16:18;39.00;67.40
22633;DHT22;11483;55.828;37.488;2022-08-05T09:18:44;39.90;65.50
22633;DHT22;11483;55.828;37.488;2022-08-05T09:21:10;40.90;62.90
22633;DHT22;11483;55.828;37.488;2022-08-05T09:23:36;41.50;60.30
22633;DHT22;11483;55.828;37.488;2022-08-05T09:26:08;41.10;59.60
22633;DHT22;11483;55.828;37.488;2022-08-05T09:28:36;41.00;59.30
22633;DHT22;11483;55.828;37.488;2022-08-05T09:31:03;41.00;58.60
22633;DHT22;11483;55.828;37.488;2022-08-05T09:33:31;41.00;58.10
22633;DHT22;11483;55.828;37.488;2022-08-05T09:35:57;40.90;57.90
22633;DHT22;11483;55.828;37.488;2022-08-05T09:38:24;41.60;57.20
22633;DHT22;11483;55.828;37.488;2022-08-05T09:40:50;42.00;57.10
22633;DHT22;11483;55.828;37.488;2022-08-05T09:43:35;43.00;55.50
22633;DHT22;11483;55.828;37.488;2022-08-05T09:46:01;43.70;54.90
22633;DHT22;11483;55.828;37.488;2022-08-05T09:48:29;43.70;54.00
22633;DHT22;11483;55.828;37.488;2022-08-05T09:51:01;42.40;54.20
22633;DHT22;11483;55.828;37.488;2022-08-05T09:53:28;40.80;55.50
22633;DHT22;11483;55.828;37.488;2022-08-05T09:55:59;39.50;56.90
22633;DHT22;11483;55.828;37.488;2022-08-05T09:58:26;38.50;58.00
22633;DHT22;11483;55.828;37.488;2022-08-05T10:01:01;38.00;58.70
22633;DHT22;11483;55.828;37.488;2022-08-05T10:03:28;38.00;59.50
22633;DHT22;11483;55.828;37.488;2022-08-05T10:06:24;38.50;59.30
22633;DHT22;11483;55.828;37.488;2022-08-05T10:08:50;39.90;57.70
22633;DHT22;11483;55.828;37.488;2022-08-05T10:11:16;41.10;55.90
22633;DHT22;11483;55.828;37.488;2022-08-05T10:13:42;42.00;55.10
22633;DHT22;11483;55.828;37.488;2022-08-05T10:18:56;42.70;53.90
22633;DHT22;11483;55.828;37.488;2022-08-05T10:21:22;43.10;53.10
22633;DHT22;11483;55.828;37.488;2022-08-05T10:23:49;43.40;52.20
22633;DHT22;11483;55.828;37.488;2022-08-05T10:26:15;43.60;51.60
22633;DHT22;11483;55.828;37.488;2022-08-05T10:28:43;43.30;51.70
22633;DHT22;11483;55.828;37.488;2022-08-05T10:31:11;42.80;51.70
22633;DHT22;11483;55.828;37.488;2022-08-05T10:33:37;41.40;53.00
22633;DHT22;11483;55.828;37.488;2022-08-05T10:36:04;40.80;53.70
22633;DHT22;11483;55.828;37.488;2022-08-05T10:38:32;41.30;52.80
22633;DHT22;11483;55.828;37.488;2022-08-05T10:43:50;42.90;52.20
22633;DHT22;11483;55.828;37.488;2022-08-05T10:46:18;43.30;51.10
22633;DHT22;11483;55.828;37.488;2022-08-05T10:48:47;43.60;50.00
22633;DHT22;11483;55.828;37.488;2022-08-05T10:51:17;42.10;50.10
22633;DHT22;11483;55.828;37.488;2022-08-05T10:56:27;39.20;53.30
22633;DHT22;11483;55.828;37.488;2022-08-05T11:01:36;42.00;52.70
22633;DHT22;11483;55.828;37.488;2022-08-05T11:04:10;43.60;50.60
22633;DHT22;11483;55.828;37.488;2022-08-05T11:09:48;44.80;50.30
22633;DHT22;11483;55.828;37.488;2022-08-05T11:17:36;45.70;47.00
22633;DHT22;11483;55.828;37.488;2022-08-05T11:20:39;45.90;47.60
22633;DHT22;11483;55.828;37.488;2022-08-05T11:23:28;46.40;47.80
22633;DHT22;11483;55.828;37.488;2022-08-05T11:41:04;45.60;45.80
22633;DHT22;11483;55.828;37.488;2022-08-05T11:43:31;44.30;46.80
22633;DHT22;11483;55.828;37.488;2022-08-05T11:45:58;42.60;47.80
22633;DHT22;11483;55.828;37.488;2022-08-05T11:48:24;41.50;49.10
22633;DHT22;11483;55.828;37.488;2022-08-05T11:50:51;40.20;50.40
22633;DHT22;11483;55.828;37.488;2022-08-05T11:53:18;38.80;52.40
22633;DHT22;11483;55.828;37.488;2022-08-05T11:55:56;37.90;53.30
22633;DHT22;11483;55.828;37.488;2022-08-05T11:58:29;37.50;54.80
22633;DHT22;11483;55.828;37.488;2022-08-05T12:01:13;38.40;54.50
22633;DHT22;11483;55.828;37.488;2022-08-05T12:03:41;39.10;53.90
22633;DHT22;11483;55.828;37.488;2022-08-05T12:06:08;38.90;53.50
22633;DHT22;11483;55.828;37.488;2022-08-05T12:08:42;38.30;53.80
22633;DHT22;11483;55.828;37.488;2022-08-05T12:11:09;37.40;54.40
22633;DHT22;11483;55.828;37.488;2022-08-05T12:13:36;36.60;56.00
22633;DHT22;11483;55.828;37.488;2022-08-05T12:16:05;35.90;57.60
22633;DHT22;11483;55.828;37.488;2022-08-05T12:18:34;35.50;58.30
22633;DHT22;11483;55.828;37.488;2022-08-05T12:21:21;35.00;58.00
22633;DHT22;11483;55.828;37.488;2022-08-05T12:26:23;36.10;57.50
22633;DHT22;11483;55.828;37.488;2022-08-05T12:28:49;37.50;57.60
22633;DHT22;11483;55.828;37.488;2022-08-05T12:31:15;38.70;55.30
22633;DHT22;11483;55.828;37.488;2022-08-05T12:33:43;40.00;54.50
22633;DHT22;11483;55.828;37.488;2022-08-05T12:36:10;40.60;52.30
22633;DHT22;11483;55.828;37.488;2022-08-05T12:38:37;39.80;53.10
22633;DHT22;11483;55.828;37.488;2022-08-05T12:41:11;39.20;53.30
22633;DHT22;11483;55.828;37.488;2022-08-05T12:43:54;38.20;54.50
22633;DHT22;11483;55.828;37.488;2022-08-05T12:46:31;37.40;55.30
22633;DHT22;11483;55.828;37.488;2022-08-05T12:49:03;36.90;56.80
22633;DHT22;11483;55.828;37.488;2022-08-05T12:51:29;36.70;56.90
22633;DHT22;11483;55.828;37.488;2022-08-05T12:54:00;36.40;58.20
22633;DHT22;11483;55.828;37.488;2022-08-05T12:56:27;36.30;57.30
22633;DHT22;11483;55.828;37.488;2022-08-05T12:59:16;36.40;56.60
22633;DHT22;11483;55.828;37.488;2022-08-05T13:01:44;36.00;58.00
22633;DHT22;11483;55.828;37.488;2022-08-05T13:04:10;37.10;57.30
22633;DHT22;11483;55.828;37.488;2022-08-05T13:06:40;38.60;55.10
22633;DHT22;11483;55.828;37.488;2022-08-05T13:09:11;40.00;53.00
22633;DHT22;11483;55.828;37.488;2022-08-05T13:11:41;41.00;51.70
22633;DHT22;11483;55.828;37.488;2022-08-05T13:14:18;41.50;52.00
22633;DHT22;11483;55.828;37.488;2022-08-05T13:16:52;42.20;52.10
22633;DHT22;11483;55.828;37.488;2022-08-05T13:19:28;43.30;50.50
22633;DHT22;11483;55.828;37.488;2022-08-05T13:21:54;44.00;50.10
22633;DHT22;11483;55.828;37.488;2022-08-05T13:24:22;44.60;48.50
22633;DHT22;11483;55.828;37.488;2022-08-05T13:26:48;44.90;48.10
22633;DHT22;11483;55.828;37.488;2022-08-05T13:29:15;44.40;49.10
22633;DHT22;11483;55.828;37.488;2022-08-05T13:31:41;44.40;47.70
22633;DHT22;11483;55.828;37.488;2022-08-05T13:34:07;43.80;47.70
22633;DHT22;11483;55.828;37.488;2022-08-05T13:36:34;43.70;48.80
22633;DHT22;11483;55.828;37.488;2022-08-05T13:39:00;44.20;47.90
22633;DHT22;11483;55.828;37.488;2022-08-05T13:41:27;44.50;48.10
22633;DHT22;11483;55.828;37.488;2022-08-05T13:43:53;44.20;47.80
22633;DHT22;11483;55.828;37.488;2022-08-05T13:46:19;43.40;48.50
22633;DHT22;11483;55.828;37.488;2022-08-05T13:48:45;42.10;49.60
22633;DHT22;11483;55.828;37.488;2022-08-05T13:51:12;41.40;49.80
22633;DHT22;11483;55.828;37.488;2022-08-05T13:53:39;41.30;50.10
22633;DHT22;11483;55.828;37.488;2022-08-05T13:56:05;40.70;50.40
22633;DHT22;11483;55.828;37.488;2022-08-05T13:58:31;39.70;50.80
22633;DHT22;11483;55.828;37.488;2022-08-05T14:00:57;39.20;51.30
22633;DHT22;11483;55.828;37.488;2022-08-05T14:03:23;39.80;52.20
22633;DHT22;11483;55.828;37.488;2022-08-05T14:05:52;40.90;51.40
22633;DHT22;11483;55.828;37.488;2022-08-05T14:08:18;41.70;50.50
22633;DHT22;11483;55.828;37.488;2022-08-05T14:10:44;41.80;49.20
22633;DHT22;11483;55.828;37.488;2022-08-05T14:13:10;42.40;48.80
22633;DHT22;11483;55.828;37.488;2022-08-05T14:15:36;42.30;48.10
22633;DHT22;11483;55.828;37.488;2022-08-05T14:18:03;42.30;49.00
22633;DHT22;11483;55.828;37.488;2022-08-05T14:20:29;42.40;50.20
22633;DHT22;11483;55.828;37.488;2022-08-05T14:22:59;43.00;48.30
22633;DHT22;11483;55.828;37.488;2022-08-05T14:25:26;42.50;47.70
22633;DHT22;11483;55.828;37.488;2022-08-05T14:27:52;42.20;48.00
22633;DHT22;11483;55.828;37.488;2022-08-05T14:30:18;42.50;48.30
22633;DHT22;11483;55.828;37.488;2022-08-05T14:32:44;43.20;47.80
22633;DHT22;11483;55.828;37.488;2022-08-05T14:35:10;43.50;48.70
22633;DHT22;11483;55.828;37.488;2022-08-05T14:37:39;43.70;47.70
22633;DHT22;11483;55.828;37.488;2022-08-05T14:40:05;43.40;48.00
22633;DHT22;11483;55.828;37.488;2022-08-05T14:42:31;42.40;48.00
22633;DHT22;11483;55.828;37.488;2022-08-05T14:44:58;41.20;48.20
22633;DHT22;11483;55.828;37.488;2022-08-05T14:47:23;40.00;49.10
22633;DHT22;11483;55.828;37.488;2022-08-05T14:49:49;38.40;50.40
22633;DHT22;11483;55.828;37.488;2022-08-05T14:52:15;37.60;52.00
22633;DHT22;11483;55.828;37.488;2022-08-05T14:54:41;37.70;52.00
22633;DHT22;11483;55.828;37.488;2022-08-05T14:57:07;37.90;51.80
22633;DHT22;11483;55.828;37.488;2022-08-05T14:59:33;37.60;51.90
22633;DHT22;11483;55.828;37.488;2022-08-05T15:01:59;37.20;52.70
22633;DHT22;11483;55.828;37.488;2022-08-05T15:04:25;37.10;53.10
22633;DHT22;11483;55.828;37.488;2022-08-05T15:06:52;36.50;54.60
22633;DHT22;11483;55.828;37.488;2022-08-05T15:09:19;36.60;52.80
22633;DHT22;11483;55.828;37.488;2022-08-05T15:11:45;36.80;52.90
22633;DHT22;11483;55.828;37.488;2022-08-05T15:14:11;37.10;54.10
22633;DHT22;11483;55.828;37.488;2022-08-05T15:16:37;37.60;53.00
22633;DHT22;11483;55.828;37.488;2022-08-05T15:19:03;37.10;52.50
22633;DHT22;11483;55.828;37.488;2022-08-05T15:21:29;36.40;52.80
22633;DHT22;11483;55.828;37.488;2022-08-05T15:23:55;35.90;53.70
22633;DHT22;11483;55.828;37.488;2022-08-05T15:26:20;35.60;54.70
22633;DHT22;11483;55.828;37.488;2022-08-05T15:28:46;35.60;54.70
22633;DHT22;11483;55.828;37.488;2022-08-05T15:31:12;35.20;54.30
22633;DHT22;11483;55.828;37.488;2022-08-05T15:33:38;34.80;55.00
22633;DHT22;11483;55.828;37.488;2022-08-05T15:36:04;34.60;55.80
22633;DHT22;11483;55.828;37.488;2022-08-05T15:38:34;34.20;56.40
22633;DHT22;11483;55.828;37.488;2022-08-05T15:41:00;34.10;55.80
22633;DHT22;11483;55.828;37.488;2022-08-05T15:43:26;34.30;55.50
22633;DHT22;11483;55.828;37.488;2022-08-05T15:45:52;34.30;55.60
22633;DHT22;11483;55.828;37.488;2022-08-05T15:48:18;34.40;55.50
22633;DHT22;11483;55.828;37.488;2022-08-05T15:50:46;34.30;55.60
22633;DHT22;11483;55.828;37.488;2022-08-05T15:53:13;34.30;56.20
22633;DHT22;11483;55.828;37.488;2022-08-05T15:55:40;34.80;56.50
22633;DHT22;11483;55.828;37.488;2022-08-05T15:58:06;35.30;55.10
22633;DHT22;11483;55.828;37.488;2022-08-05T16:00:32;35.20;55.00
22633;DHT22;11483;55.828;37.488;2022-08-05T16:02:58;35.40;54.80
22633;DHT22;11483;55.828;37.488;2022-08-05T16:05:24;35.50;55.00
22633;DHT22;11483;55.828;37.488;2022-08-05T16:07:50;35.60;54.40
22633;DHT22;11483;55.828;37.488;2022-08-05T16:10:16;36.00;53.90
22633;DHT22;11483;55.828;37.488;2022-08-05T16:12:42;36.30;53.90